Latest Weather Observations for Norfolk Island

IDN60801

Issued at 12:43 am EDT Monday 26 October 2020 (issued every 10 minutes, with the page automatically refreshed every 10 minutes)

About weather observations | Map of weather stations | Latest weather observations for NSW | Other Formats
Station Details ID: 200288 Name: NORFOLK ISLAND AERO Lat: -29.04 Lon: 167.94 Height: 111.73 m
Data from the previous 72 hours. | See also: Recent months at Norfolk Island

Observations are collected in the New South Wales time zone (Eastern Standard Time) which includes daylight savings in the summer period. Therefore 'Rain since 9am' totals and other values are based on the New South Wales time zone, which may differ from local time.

Date/Time
EDT
Temp
°C
App
Temp
°C
Dew
Point
°C
Rel
Hum
%
Delta-T
°C
Wind Press
QNH
hPa
Press
MSL
hPa
Rain since
9am
mm
Dir  Spd
km/h
Gust
km/h
Spd
kts
Gust
kts
26/12:30am 18.4 18.2 16.7 90 1.0 ENE 13 19 7 10 1020.8 1020.6 0.0
26/12:25am 18.4 17.8 16.7 90 1.0 ENE 15 19 8 10 1020.9 1020.7 0.0
26/12:23am 18.4 17.8 16.7 90 1.0 ENE 15 19 8 10 1020.9 1020.7 0.0
26/12:09am 18.6 18.1 16.8 89 1.1 ENE 15 20 8 11 1020.9 1020.7 0.0
26/12:00am 18.6 18.1 16.9 90 1.0 NE 15 20 8 11 1021.0 1020.8 0.0
 
Date/Time
EDT
Temp
°C
App
Temp
°C
Dew
Point
°C
Rel
Hum
%
Delta-T
°C
Wind Press
QNH
hPa
Press
MSL
hPa
Rain since
9am
mm
Dir  Spd
km/h
Gust
km/h
Spd
kts
Gust
kts
25/11:39pm 18.6 17.7 16.8 89 1.1 ENE 17 26 9 14 1021.0 1020.8 0.0
25/11:30pm 18.6 18.1 16.9 90 1.0 ENE 15 26 8 14 1021.0 1020.8 0.0
25/11:27pm 18.6 17.7 16.9 90 1.0 ENE 17 26 9 14 1021.0 1020.8 0.0
25/11:25pm 18.6 17.7 16.9 90 1.0 ENE 17 26 9 14 1021.0 1020.8 0.0
25/11:00pm 18.8 17.4 16.9 89 1.1 NE 20 28 11 15 1021.3 1021.1 0.0
25/10:30pm 18.8 17.5 16.9 89 1.2 NE 19 28 10 15 1021.4 1021.2 0.0
25/10:14pm 18.9 17.7 17.0 89 1.2 NE 19 30 10 16 1021.4 1021.2 0.0
25/10:06pm 18.8 17.5 16.9 89 1.2 NE 19 28 10 15 1021.5 1021.3 0.0
25/10:00pm 18.8 17.9 16.9 89 1.1 NE 17 24 9 13 1021.5 1021.3 0.0
25/09:53pm 18.8 17.9 16.9 89 1.2 NE 17 24 9 13 1021.6 1021.4 0.0
25/09:30pm 18.9 18.1 17.0 89 1.2 NE 17 26 9 14 1021.8 1021.6 0.0
25/09:00pm 19.0 18.9 17.0 88 1.2 NE 13 22 7 12 1022.1 1021.9 0.0
25/08:30pm 18.8 17.9 16.9 89 1.2 ENE 17 26 9 14 1021.9 1021.7 0.0
25/08:00pm 18.9 17.5 16.9 88 1.2 ENE 20 28 11 15 1021.7 1021.5 0.0
25/07:30pm 19.0 16.0 16.8 87 1.3 ENE 28 37 15 20 1021.1 1020.9 0.0
25/07:00pm 19.0 16.5 17.0 88 1.2 ENE 26 33 14 18 1020.9 1020.7 0.0
25/06:30pm 19.1 16.2 17.1 88 1.2 ENE 28 37 15 20 1020.7 1020.5 0.0
25/06:15pm 19.1 16.2 17.1 88 1.2 ENE 28 39 15 21 1020.6 1020.4 0.0
25/06:00pm 19.3 16.4 17.1 87 1.3 ENE 28 37 15 20 1020.7 1020.5 0.0
25/05:30pm 19.7 16.9 17.3 86 1.5 ENE 28 35 15 19 1020.3 1020.1 0.0
25/05:24pm 19.7 17.2 17.1 85 1.6 ENE 26 33 14 18 1020.4 1020.2 0.0
25/05:00pm 19.7 16.7 16.9 84 1.7 ENE 28 35 15 19 1020.1 1019.9 0.0
25/04:30pm 20.4 17.5 17.0 81 2.1 ENE 28 39 15 21 1019.9 1019.7 0.0
25/04:00pm 20.8 17.4 16.8 78 2.4 NE 30 39 16 21 1019.4 1019.2 0.0
25/03:30pm 21.3 18.2 17.5 79 2.4 ENE 30 37 16 20 1019.8 1019.6 0.0
25/03:00pm 20.9 17.1 16.7 77 2.6 ENE 32 39 17 21 1019.7 1019.5 0.0
25/02:30pm 21.3 18.0 16.9 76 2.7 NE 30 39 16 21 1020.0 1019.8 0.0
25/02:00pm 20.9 17.2 16.9 78 2.4 NE 32 39 17 21 1020.0 1019.8 0.0
25/01:30pm 21.4 17.5 17.0 76 2.7 ENE 33 41 18 22 1020.2 1020.0 0.0
25/01:00pm 21.9 19.3 17.9 78 2.5 NE 28 39 15 21 1020.5 1020.3 0.0
25/12:32pm 21.5 18.1 17.7 79 2.4 NE 32 39 17 21 1021.0 1020.8 0.0
25/12:30pm 21.4 18.0 17.6 79 2.4 NE 32 39 17 21 1021.0 1020.8 0.0
25/12:00pm 21.4 18.6 17.4 78 2.5 ENE 28 37 15 20 1021.3 1021.1 0.0
25/11:30am 21.3 18.1 17.3 78 2.5 ENE 30 37 16 20 1021.4 1021.2 0.0
25/11:00am 21.5 19.7 17.9 80 2.2 NE 24 35 13 19 1021.4 1021.2 0.0
25/10:30am 21.2 18.6 17.8 81 2.1 ENE 28 37 15 20 1021.6 1021.4 0.0
25/10:00am 21.1 18.5 17.7 81 2.1 ENE 28 37 15 20 1021.6 1021.4 0.0
25/09:30am 21.0 17.9 17.6 81 2.1 NE 30 39 16 21 1021.6 1021.4 0.0
25/09:20am 21.2 17.8 17.6 80 2.2 NE 32 39 17 21 1021.5 1021.3 0.0
25/09:07am 21.4 18.1 18.0 81 2.1 NE 32 41 17 22 1021.4 1021.2 0.0
25/09:00am 21.0 17.6 17.6 81 2.1 NE 32 39 17 21 1021.3 1021.1 0.0
25/08:30am 21.2 18.6 17.8 81 2.1 ENE 28 39 15 21 1021.5 1021.3 0.0
25/08:00am 21.5 19.5 18.3 82 2.0 ENE 26 35 14 19 1021.6 1021.4 0.0
25/07:45am 21.2 20.2 18.0 82 2.0 NE 20 32 11 17 1021.6 1021.4 0.0
25/07:39am 20.9 19.8 17.7 82 2.0 NE 20 32 11 17 1021.5 1021.3 0.0
25/07:30am 20.6 19.1 17.6 83 1.9 NE 22 35 12 19 1021.5 1021.3 0.0
25/07:00am 20.3 18.0 17.7 85 1.6 NE 26 33 14 18 1021.3 1021.1 0.0
25/06:51am 20.2 18.7 17.6 85 1.6 NE 22 35 12 19 1021.2 1021.0 0.0
25/06:47am 20.3 18.5 17.9 86 1.5 NE 24 35 13 19 1021.1 1020.9 0.0
25/06:30am 20.0 17.8 17.8 87 1.4 NE 26 37 14 20 1021.2 1021.0 0.0
25/06:00am 19.5 17.8 18.0 91 0.9 NE 24 33 13 18 1020.9 1020.7 0.0
25/05:30am 19.1 17.6 17.8 92 0.8 NE 22 35 12 19 1020.6 1020.4 0.0
25/05:00am 19.1 17.3 17.8 92 0.8 NE 24 33 13 18 1020.2 1020.0 0.0
25/04:30am 19.2 18.2 18.0 93 0.7 NE 20 28 11 15 1019.9 1019.7 0.0
25/04:00am 19.2 17.5 18.0 93 0.7 NE 24 32 13 17 1019.9 1019.7 0.0
25/03:30am 19.2 17.9 18.2 94 0.6 NE 22 32 12 17 1019.6 1019.4 0.0
25/03:00am 19.2 17.5 18.2 94 0.6 ENE 24 33 13 18 1019.4 1019.2 0.0
25/02:30am 19.2 17.2 18.2 94 0.6 ENE 26 33 14 18 1019.6 1019.4 0.0
25/02:00am 19.1 16.5 17.9 93 0.7 NE 28 39 15 21 1019.4 1019.2 0.0
25/01:30am 19.2 16.7 18.0 93 0.7 NE 28 39 15 21 1019.5 1019.3 0.0
25/01:00am 19.3 16.8 18.1 93 0.7 NE 28 37 15 20 1019.9 1019.7 0.0
25/12:30am 19.4 17.7 18.2 93 0.7 NE 24 32 13 17 1020.4 1020.2 0.0
25/12:00am 19.4 17.4 18.2 93 0.7 NE 26 32 14 17 1020.6 1020.4 0.0
 
Date/Time
EDT
Temp
°C
App
Temp
°C
Dew
Point
°C
Rel
Hum
%
Delta-T
°C
Wind Press
QNH
hPa
Press
MSL
hPa
Rain since
9am
mm
Dir  Spd
km/h
Gust
km/h
Spd
kts
Gust
kts
24/11:30pm 19.4 18.5 18.2 93 0.7 NE 20 30 11 16 1021.0 1020.8 0.0
24/11:00pm 19.4 18.1 18.2 93 0.7 NE 22 32 12 17 1021.3 1021.1 0.0
24/10:30pm 19.5 17.9 18.3 93 0.7 NE 24 33 13 18 1021.3 1021.1 0.0
24/10:00pm 19.4 17.4 18.2 93 0.7 NE 26 35 14 19 1021.3 1021.1 0.0
24/09:30pm 19.4 17.4 18.2 93 0.7 NE 26 37 14 20 1021.5 1021.3 0.0
24/09:00pm 19.5 17.1 18.2 92 0.8 NE 28 37 15 20 1021.7 1021.5 0.0
24/08:30pm 19.5 17.9 18.3 93 0.7 ENE 24 35 13 19 1021.6 1021.4 0.0
24/08:00pm 19.4 17.7 18.1 92 0.8 ENE 24 35 13 19 1021.5 1021.3 0.0
24/07:30pm 19.4 17.3 18.1 92 0.8 ENE 26 35 14 19 1021.2 1021.0 0.0
24/07:09pm 19.4 17.3 18.1 92 0.8 ENE 26 32 14 17 1021.1 1020.9 0.0
24/07:00pm 19.4 17.3 18.1 92 0.8 NE 26 32 14 17 1021.0 1020.8 0.0
24/06:34pm 19.4 18.0 17.9 91 0.9 NE 22 30 12 16 1020.9 1020.7 0.0
24/06:30pm 19.4 18.4 17.9 91 0.9 NE 20 30 11 16 1020.9 1020.7 0.0
24/06:00pm 19.5 18.4 17.8 90 1.0 NE 20 28 11 15 1020.8 1020.6 0.0
24/05:30pm 19.7 18.6 17.8 89 1.2 NE 20 30 11 16 1020.8 1020.6 0.0
24/05:12pm 19.7 17.8 17.7 88 1.2 NE 24 33 13 18 1020.5 1020.3 0.0
24/05:00pm 19.7 17.4 17.7 88 1.2 NE 26 32 14 17 1020.4 1020.2 0.0
24/04:30pm 19.9 17.2 17.5 86 1.5 NE 28 33 15 18 1020.1 1019.9 0.0
24/04:00pm 20.1 16.9 17.3 84 1.7 NE 30 39 16 21 1020.1 1019.9 0.0
24/03:30pm 20.3 17.7 17.7 85 1.6 NE 28 35 15 19 1020.0 1019.8 0.0
24/03:00pm 20.2 17.6 17.8 86 1.5 NE 28 39 15 21 1019.8 1019.6 0.0
24/02:30pm 20.3 16.5 17.3 83 1.8 NE 33 43 18 23 1019.7 1019.5 0.0
24/02:00pm 20.5 16.3 17.1 81 2.1 NE 35 44 19 24 1020.0 1019.8 0.0
24/01:30pm 21.4 18.1 18.0 81 2.1 ENE 32 41 17 22 1020.5 1020.3 0.0
24/01:00pm 20.8 18.5 17.6 82 2.0 NE 26 35 14 19 1020.8 1020.6 0.0
24/12:30pm 21.1 19.1 17.5 80 2.2 NE 24 33 13 18 1021.1 1020.9 0.0
24/12:13pm 21.6 18.3 18.0 80 2.2 NE 32 44 17 24 1021.1 1020.9 0.0
24/12:00pm 21.9 18.2 18.3 80 2.3 NE 35 46 19 25 1021.1 1020.9 0.0
24/11:30am 21.5 17.5 17.5 78 2.5 ENE 35 48 19 26 1021.2 1021.0 0.0
24/11:26am 21.6 17.6 17.6 78 2.5 ENE 35 48 19 26 1021.2 1021.0 0.0
24/11:00am 21.4 18.9 18.0 81 2.1 ENE 28 39 15 21 1021.3 1021.1 0.0
24/10:34am 21.1 18.0 17.5 80 2.2 ENE 30 41 16 22 1021.4 1021.2 0.0
24/10:30am 21.5 18.9 17.7 79 2.4 ENE 28 41 15 22 1021.4 1021.2 0.0
24/10:00am 21.8 19.6 18.8 83 1.9 NE 28 39 15 21 1021.5 1021.3 0.0
24/09:30am 21.0 17.5 17.8 82 2.0 NE 33 44 18 24 1021.5 1021.3 0.0
24/09:00am 20.8 17.3 17.8 83 1.9 NE 33 41 18 22 1021.3 1021.1 0.0
24/08:30am 20.9 18.2 18.5 86 1.5 NE 30 43 16 23 1021.2 1021.0 0.0
24/08:00am 20.7 17.7 18.6 88 1.3 NE 32 39 17 21 1021.1 1020.9 0.0
24/07:30am 20.0 17.4 18.7 92 0.8 NE 30 41 16 22 1020.8 1020.6 0.0
24/07:00am 19.8 17.2 18.6 93 0.7 NE 30 39 16 21 1020.8 1020.6 0.0
24/06:30am 19.6 18.1 18.6 94 0.6 NE 24 32 13 17 1020.8 1020.6 0.0
24/06:00am 19.4 17.8 18.4 94 0.6 NE 24 32 13 17 1020.6 1020.4 0.0
24/05:30am 19.3 17.7 18.3 94 0.6 NE 24 32 13 17 1020.2 1020.0 0.0
24/05:00am 19.2 18.3 18.2 94 0.6 NE 20 28 11 15 1020.2 1020.0 0.0
24/04:30am 19.2 18.3 18.2 94 0.6 NE 20 28 11 15 1020.2 1020.0 0.0
24/04:00am 19.2 18.9 18.2 94 0.6 NE 17 26 9 14 1020.2 1020.0 0.0
24/03:30am 19.2 18.5 18.2 94 0.6 NE 19 28 10 15 1020.2 1020.0 0.0
24/03:00am 19.2 18.3 18.2 94 0.6 NE 20 32 11 17 1020.0 1019.8 0.0
24/02:30am 19.2 18.5 18.2 94 0.6 NE 19 32 10 17 1019.7 1019.5 0.0
24/02:00am 19.2 18.5 18.2 94 0.6 NE 19 32 10 17 1019.7 1019.5 0.0
24/01:30am 19.3 18.4 18.3 94 0.6 NE 20 28 11 15 1020.1 1019.9 0.0
24/01:00am 19.3 18.4 18.3 94 0.6 NE 20 32 11 17 1020.3 1020.1 0.0
24/12:30am 19.4 19.2 18.4 94 0.6 NE 17 28 9 15 1020.5 1020.3 0.0
24/12:00am 19.4 18.7 18.6 95 0.5 NE 20 32 11 17 1020.9 1020.7 0.0
 
Date/Time
EDT
Temp
°C
App
Temp
°C
Dew
Point
°C
Rel
Hum
%
Delta-T
°C
Wind Press
QNH
hPa
Press
MSL
hPa
Rain since
9am
mm
Dir  Spd
km/h
Gust
km/h
Spd
kts
Gust
kts
23/11:30pm 19.5 18.4 18.7 95 0.5 NE 22 32 12 17 1021.1 1020.9 0.0
23/11:00pm 19.5 18.8 18.7 95 0.5 NE 20 30 11 16 1021.3 1021.1 0.0
23/10:45pm 19.5 18.8 18.7 95 0.5 NE 20 32 11 17 1021.4 1021.2 0.0
23/10:30pm 19.6 19.2 18.8 95 0.5 NE 19 28 10 15 1021.5 1021.3 0.0
23/10:11pm 19.5 18.8 18.7 95 0.5 NE 20 32 11 17 1021.2 1021.0 0.0
23/10:00pm 19.6 18.6 18.8 95 0.5 NE 22 30 12 16 1021.2 1021.0 0.0
23/09:36pm 19.6 18.6 18.8 95 0.5 NE 22 30 12 16 1021.1 1020.9 0.0
23/09:30pm 19.6 19.0 18.8 95 0.5 NE 20 35 11 19 1021.1 1020.9 0.0
23/09:01pm 19.6 18.6 18.8 95 0.5 NE 22 33 12 18 1021.0 1020.8 0.0
23/09:00pm 19.6 18.2 18.8 95 0.5 NE 24 35 13 19 1021.0 1020.8 0.0
23/08:30pm 19.6 17.8 18.8 95 0.5 NE 26 35 14 19 1020.9 1020.7 0.0
23/08:00pm 19.6 18.1 18.6 94 0.6 NE 24 35 13 19 1020.7 1020.5 0.0
23/07:30pm 19.7 18.6 18.7 94 0.6 NE 22 32 12 17 1020.6 1020.4 0.0
23/07:00pm 19.7 17.9 18.7 94 0.6 NE 26 33 14 18 1020.2 1020.0 0.0
23/06:30pm 19.7 17.9 18.7 94 0.6 NE 26 35 14 19 1019.9 1019.7 0.0
23/06:00pm 19.8 17.6 18.6 93 0.7 NE 28 35 15 19 1019.8 1019.6 0.0
23/05:30pm 20.0 18.2 18.7 92 0.8 NE 26 35 14 19 1019.3 1019.1 0.0
23/05:00pm 20.5 19.5 18.8 90 1.1 NE 22 32 12 17 1019.1 1018.9 0.0
23/04:30pm 20.9 19.6 19.0 89 1.2 NE 24 33 13 18 1018.8 1018.6 0.0
23/04:00pm 21.1 19.5 19.2 89 1.2 NE 26 33 14 18 1018.4 1018.2 0.0
23/03:30pm 21.2 20.3 19.1 88 1.3 NE 22 32 12 17 1018.3 1018.1 0.0
23/03:00pm 21.1 20.6 19.0 88 1.3 NE 20 33 11 18 1018.3 1018.1 0.0
23/02:30pm 21.4 21.5 19.9 91 1.0 NE 19 28 10 15 1018.5 1018.3 0.0
23/02:00pm 20.8 21.0 19.3 91 1.0 NE 17 24 9 13 1019.0 1018.8 0.0
23/01:30pm 20.8 21.0 19.3 91 1.0 NE 17 28 9 15 1019.4 1019.2 0.0
23/01:00pm 21.1 21.4 19.6 91 1.0 NE 17 28 9 15 1019.5 1019.3 0.0
23/12:30pm 20.7 20.7 19.0 90 1.1 NE 17 26 9 14 1019.9 1019.7 0.0
23/12:00pm 21.4 22.1 19.7 90 1.1 NE 15 22 8 12 1019.9 1019.7 0.0
23/11:30am 20.9 21.0 19.2 90 1.1 NE 17 26 9 14 1020.2 1020.0 0.0
23/11:00am 21.0 21.1 19.1 89 1.2 NE 17 24 9 13 1020.5 1020.3 0.0
23/10:30am 20.9 20.5 19.0 89 1.2 NE 19 28 10 15 1020.3 1020.1 0.0
23/10:00am 21.0 20.8 19.3 90 1.1 NE 19 30 10 16 1020.7 1020.5 0.0
23/09:30am 20.7 20.8 19.2 91 1.0 NE 17 22 9 12 1020.5 1020.3 0.0
23/09:00am 20.6 21.0 19.1 91 0.9 NE 15 22 8 12 1020.6 1020.4 0.0
23/08:30am 20.8 20.9 19.1 90 1.1 NE 17 24 9 13 1020.4 1020.2 0.0
23/08:00am 20.2 20.6 18.9 92 0.8 NE 15 22 8 12 1020.3 1020.1 0.8
23/07:30am 20.1 19.9 18.6 91 0.9 NE 17 24 9 13 1020.2 1020.0 0.8
23/07:22am 20.4 20.8 18.9 91 0.9 NE 15 20 8 11 1020.1 1019.9 0.8
23/07:02am 20.4 20.8 18.9 91 0.9 ENE 15 17 8 9 1020.0 1019.8 0.8
23/07:00am 20.5 21.0 19.2 92 0.8 ENE 15 19 8 10 1020.1 1019.9 0.8
23/06:30am 19.7 19.9 18.5 93 0.7 NE 15 17 8 9 1019.9 1019.7 0.8
23/06:00am 19.2 20.4 18.2 94 0.6 NE 9 13 5 7 1019.6 1019.4 0.8
23/05:44am 19.2 20.0 18.2 94 0.6 NE 11 15 6 8 1019.4 1019.2 0.8
23/05:38am 19.1 20.2 17.9 93 0.7 NE 9 13 5 7 1019.3 1019.1 0.8
23/05:30am 19.0 20.0 17.8 93 0.7 NE 9 15 5 8 1019.3 1019.1 0.8
23/05:00am 19.1 20.2 17.9 93 0.7 NNE 9 15 5 8 1019.1 1018.9 0.8
23/04:30am 19.0 20.1 18.0 94 0.6 N 9 13 5 7 1018.8 1018.6 0.8
23/04:00am 19.0 19.7 18.0 94 0.6 NNE 11 22 6 12 1018.5 1018.3 0.8
23/03:30am 18.8 19.8 17.8 94 0.6 ENE 9 13 5 7 1018.3 1018.1 0.8
23/03:00am 19.0 19.6 17.8 93 0.7 NE 11 20 6 11 1018.2 1018.0 0.8
23/02:30am 19.2 20.0 18.2 94 0.6 NNE 11 17 6 9 1018.4 1018.2 0.8
23/02:00am 19.0 20.0 17.8 93 0.7 NNE 9 15 5 8 1018.5 1018.3 0.8
23/01:30am 19.1 19.9 18.1 94 0.6 NNE 11 17 6 9 1018.6 1018.4 0.8
23/01:00am 19.2 19.9 18.0 93 0.7 NNE 11 17 6 9 1018.6 1018.4 0.8
23/12:30am 19.1 19.4 17.9 93 0.7 NNE 13 22 7 12 1018.9 1018.7 0.8

Other formats

Comma delimited format used in spreadsheet applications
http://www.bom.gov.au/fwo/IDN60801/IDN60801.94996.axf

JavaScript Object Notation format (JSON) in row-major order
http://www.bom.gov.au/fwo/IDN60801/IDN60801.94996.json

Data quality

Most of these data are generated automatically and are frequently updated. Quality checks on data are not normally performed. It is possible for incorrect values to appear. Refer to information at About Latest Weather Observations and please check the disclaimer before using these data.